sensor_id;sensor_type;location;lat;lon;timestamp;temperature;humidity
17859;DHT22;35426;30.698;104.050;2023-04-03T00:01:17;18.10;99.90
17859;DHT22;35426;30.698;104.050;2023-04-03T00:03:53;17.90;99.90
17859;DHT22;35426;30.698;104.050;2023-04-03T00:06:30;18.00;99.90
17859;DHT22;35426;30.698;104.050;2023-04-03T00:09:09;18.10;99.90
17859;DHT22;35426;30.698;104.050;2023-04-03T00:11:48;18.20;99.90
17859;DHT22;35426;30.698;104.050;2023-04-03T00:14:29;18.20;99.90
17859;DHT22;35426;30.698;104.050;2023-04-03T00:17:11;18.10;99.90
17859;DHT22;35426;30.698;104.050;2023-04-03T00:19:47;18.00;99.90
17859;DHT22;35426;30.698;104.050;2023-04-03T00:22:27;18.00;99.90
17859;DHT22;35426;30.698;104.050;2023-04-03T00:25:05;18.30;99.90
17859;DHT22;35426;30.698;104.050;2023-04-03T00:27:42;18.60;99.90
17859;DHT22;35426;30.698;104.050;2023-04-03T00:30:20;18.30;99.90
17859;DHT22;35426;30.698;104.050;2023-04-03T00:33:00;18.20;99.90
17859;DHT22;35426;30.698;104.050;2023-04-03T00:35:38;18.30;99.90
17859;DHT22;35426;30.698;104.050;2023-04-03T00:38:15;18.00;99.90
17859;DHT22;35426;30.698;104.050;2023-04-03T00:40:57;18.10;99.90
17859;DHT22;35426;30.698;104.050;2023-04-03T00:43:35;18.30;99.90
17859;DHT22;35426;30.698;104.050;2023-04-03T00:46:13;18.60;99.90
17859;DHT22;35426;30.698;104.050;2023-04-03T00:48:55;18.40;99.90
17859;DHT22;35426;30.698;104.050;2023-04-03T00:51:39;18.40;99.90
17859;DHT22;35426;30.698;104.050;2023-04-03T00:54:20;18.50;99.90
17859;DHT22;35426;30.698;104.050;2023-04-03T00:56:59;18.50;99.90
17859;DHT22;35426;30.698;104.050;2023-04-03T00:59:42;18.50;99.90
17859;DHT22;35426;30.698;104.050;2023-04-03T01:02:31;18.90;99.90
17859;DHT22;35426;30.698;104.050;2023-04-03T01:05:18;19.20;99.90
17859;DHT22;35426;30.698;104.050;2023-04-03T01:08:00;19.20;99.90
17859;DHT22;35426;30.698;104.050;2023-04-03T01:10:38;18.90;99.90
17859;DHT22;35426;30.698;104.050;2023-04-03T01:13:27;18.80;99.90
17859;DHT22;35426;30.698;104.050;2023-04-03T01:16:05;18.90;99.90
17859;DHT22;35426;30.698;104.050;2023-04-03T01:18:44;19.10;99.90
17859;DHT22;35426;30.698;104.050;2023-04-03T01:21:52;18.70;99.90
17859;DHT22;35426;30.698;104.050;2023-04-03T01:24:42;19.00;99.90
17859;DHT22;35426;30.698;104.050;2023-04-03T01:27:24;19.10;99.90
17859;DHT22;35426;30.698;104.050;2023-04-03T01:30:02;18.90;99.90
17859;DHT22;35426;30.698;104.050;2023-04-03T01:32:43;18.60;99.90
17859;DHT22;35426;30.698;104.050;2023-04-03T01:35:25;18.50;99.90
17859;DHT22;35426;30.698;104.050;2023-04-03T01:38:01;18.70;99.90
17859;DHT22;35426;30.698;104.050;2023-04-03T01:40:38;18.90;99.90
17859;DHT22;35426;30.698;104.050;2023-04-03T01:43:16;18.90;99.90
17859;DHT22;35426;30.698;104.050;2023-04-03T01:45:57;18.80;99.90
17859;DHT22;35426;30.698;104.050;2023-04-03T01:48:36;18.90;99.90
17859;DHT22;35426;30.698;104.050;2023-04-03T01:51:13;19.00;99.90
17859;DHT22;35426;30.698;104.050;2023-04-03T01:53:51;19.30;99.90
17859;DHT22;35426;30.698;104.050;2023-04-03T01:56:29;18.90;99.90
17859;DHT22;35426;30.698;104.050;2023-04-03T01:59:12;18.80;99.90
17859;DHT22;35426;30.698;104.050;2023-04-03T02:01:57;19.00;99.90
17859;DHT22;35426;30.698;104.050;2023-04-03T02:04:37;19.00;99.90
17859;DHT22;35426;30.698;104.050;2023-04-03T02:07:14;19.20;99.90
17859;DHT22;35426;30.698;104.050;2023-04-03T02:09:52;19.30;99.90
17859;DHT22;35426;30.698;104.050;2023-04-03T02:12:28;19.20;99.90
17859;DHT22;35426;30.698;104.050;2023-04-03T02:15:14;18.90;99.90
17859;DHT22;35426;30.698;104.050;2023-04-03T02:17:51;19.00;99.90
17859;DHT22;35426;30.698;104.050;2023-04-03T02:20:33;19.50;99.90
17859;DHT22;35426;30.698;104.050;2023-04-03T02:23:11;19.20;99.90
17859;DHT22;35426;30.698;104.050;2023-04-03T02:25:49;19.20;99.90
17859;DHT22;35426;30.698;104.050;2023-04-03T02:28:26;19.20;99.90
17859;DHT22;35426;30.698;104.050;2023-04-03T02:31:02;18.90;99.90
17859;DHT22;35426;30.698;104.050;2023-04-03T02:33:43;18.80;99.90
17859;DHT22;35426;30.698;104.050;2023-04-03T02:36:28;18.60;99.90
17859;DHT22;35426;30.698;104.050;2023-04-03T02:39:12;18.60;99.90
17859;DHT22;35426;30.698;104.050;2023-04-03T02:41:48;18.90;99.90
17859;DHT22;35426;30.698;104.050;2023-04-03T02:44:27;19.00;99.90
17859;DHT22;35426;30.698;104.050;2023-04-03T02:47:08;19.30;99.90
17859;DHT22;35426;30.698;104.050;2023-04-03T02:49:49;19.30;99.90
17859;DHT22;35426;30.698;104.050;2023-04-03T02:52:28;19.20;99.90
17859;DHT22;35426;30.698;104.050;2023-04-03T02:55:12;19.20;99.90
17859;DHT22;35426;30.698;104.050;2023-04-03T02:57:56;19.30;99.90
17859;DHT22;35426;30.698;104.050;2023-04-03T03:00:37;18.90;99.90
17859;DHT22;35426;30.698;104.050;2023-04-03T03:03:18;19.00;99.90
17859;DHT22;35426;30.698;104.050;2023-04-03T03:06:05;19.20;99.90
17859;DHT22;35426;30.698;104.050;2023-04-03T03:08:49;19.10;99.90
17859;DHT22;35426;30.698;104.050;2023-04-03T03:11:30;19.00;99.90
17859;DHT22;35426;30.698;104.050;2023-04-03T03:14:11;18.90;99.90
17859;DHT22;35426;30.698;104.050;2023-04-03T03:16:46;18.90;99.90
17859;DHT22;35426;30.698;104.050;2023-04-03T03:19:22;18.70;99.90
17859;DHT22;35426;30.698;104.050;2023-04-03T03:21:58;19.40;99.90
17859;DHT22;35426;30.698;104.050;2023-04-03T03:24:44;19.80;99.90
17859;DHT22;35426;30.698;104.050;2023-04-03T03:27:23;19.90;99.90
17859;DHT22;35426;30.698;104.050;2023-04-03T03:30:00;20.00;99.90
17859;DHT22;35426;30.698;104.050;2023-04-03T03:32:37;19.90;99.90
17859;DHT22;35426;30.698;104.050;2023-04-03T03:35:12;20.10;99.90
17859;DHT22;35426;30.698;104.050;2023-04-03T03:37:46;20.30;99.90
17859;DHT22;35426;30.698;104.050;2023-04-03T03:40:21;20.30;99.90
17859;DHT22;35426;30.698;104.050;2023-04-03T03:42:55;20.30;99.90
17859;DHT22;35426;30.698;104.050;2023-04-03T03:45:31;20.30;99.90
17859;DHT22;35426;30.698;104.050;2023-04-03T03:48:05;20.50;99.90
17859;DHT22;35426;30.698;104.050;2023-04-03T03:50:38;20.40;99.90
17859;DHT22;35426;30.698;104.050;2023-04-03T03:53:12;20.50;99.90
17859;DHT22;35426;30.698;104.050;2023-04-03T03:55:47;20.50;99.90
17859;DHT22;35426;30.698;104.050;2023-04-03T03:58:24;20.50;99.90
17859;DHT22;35426;30.698;104.050;2023-04-03T04:00:57;21.00;99.90
17859;DHT22;35426;30.698;104.050;2023-04-03T04:03:34;21.10;99.90
17859;DHT22;35426;30.698;104.050;2023-04-03T04:06:09;21.10;99.90
17859;DHT22;35426;30.698;104.050;2023-04-03T04:08:43;20.80;99.90
17859;DHT22;35426;30.698;104.050;2023-04-03T04:11:18;21.30;99.90
17859;DHT22;35426;30.698;104.050;2023-04-03T04:13:55;21.40;99.90
17859;DHT22;35426;30.698;104.050;2023-04-03T04:16:30;21.00;99.90
17859;DHT22;35426;30.698;104.050;2023-04-03T04:19:10;21.30;99.90
17859;DHT22;35426;30.698;104.050;2023-04-03T04:21:48;20.30;99.90
17859;DHT22;35426;30.698;104.050;2023-04-03T04:24:21;20.50;99.90
17859;DHT22;35426;30.698;104.050;2023-04-03T04:26:58;21.20;99.90
17859;DHT22;35426;30.698;104.050;2023-04-03T04:29:36;21.30;99.90
17859;DHT22;35426;30.698;104.050;2023-04-03T04:32:13;21.80;99.90
17859;DHT22;35426;30.698;104.050;2023-04-03T04:34:47;22.10;99.90
17859;DHT22;35426;30.698;104.050;2023-04-03T04:37:20;22.10;99.90
17859;DHT22;35426;30.698;104.050;2023-04-03T04:39:54;21.60;99.90
17859;DHT22;35426;30.698;104.050;2023-04-03T04:42:30;22.00;99.90
17859;DHT22;35426;30.698;104.050;2023-04-03T04:45:05;21.90;99.90
17859;DHT22;35426;30.698;104.050;2023-04-03T04:47:40;22.10;99.90
17859;DHT22;35426;30.698;104.050;2023-04-03T04:50:14;22.10;99.90
17859;DHT22;35426;30.698;104.050;2023-04-03T04:52:50;22.20;99.90
17859;DHT22;35426;30.698;104.050;2023-04-03T04:55:25;22.20;99.90
17859;DHT22;35426;30.698;104.050;2023-04-03T04:58:00;22.10;99.90
17859;DHT22;35426;30.698;104.050;2023-04-03T05:00:36;22.20;99.90
17859;DHT22;35426;30.698;104.050;2023-04-03T05:03:11;21.90;99.90
17859;DHT22;35426;30.698;104.050;2023-04-03T05:05:46;22.00;99.90
17859;DHT22;35426;30.698;104.050;2023-04-03T05:08:20;22.40;99.90
17859;DHT22;35426;30.698;104.050;2023-04-03T05:10:55;22.50;99.90
17859;DHT22;35426;30.698;104.050;2023-04-03T05:13:31;22.60;99.90
17859;DHT22;35426;30.698;104.050;2023-04-03T05:16:08;23.00;99.90
17859;DHT22;35426;30.698;104.050;2023-04-03T05:18:42;22.20;99.90
17859;DHT22;35426;30.698;104.050;2023-04-03T05:21:21;22.30;99.90
17859;DHT22;35426;30.698;104.050;2023-04-03T05:23:56;22.60;99.90
17859;DHT22;35426;30.698;104.050;2023-04-03T05:26:32;22.90;99.90
17859;DHT22;35426;30.698;104.050;2023-04-03T05:29:07;22.90;99.90
17859;DHT22;35426;30.698;104.050;2023-04-03T05:31:41;22.60;99.90
17859;DHT22;35426;30.698;104.050;2023-04-03T05:34:15;22.10;99.90
17859;DHT22;35426;30.698;104.050;2023-04-03T05:37:03;21.80;99.90
17859;DHT22;35426;30.698;104.050;2023-04-03T05:39:37;22.30;99.90
17859;DHT22;35426;30.698;104.050;2023-04-03T05:42:13;22.70;99.90
17859;DHT22;35426;30.698;104.050;2023-04-03T05:44:49;22.50;99.90
17859;DHT22;35426;30.698;104.050;2023-04-03T05:47:23;22.70;99.90
17859;DHT22;35426;30.698;104.050;2023-04-03T05:49:57;22.60;99.90
17859;DHT22;35426;30.698;104.050;2023-04-03T05:52:33;22.40;99.90
17859;DHT22;35426;30.698;104.050;2023-04-03T05:55:08;22.40;99.90
17859;DHT22;35426;30.698;104.050;2023-04-03T05:57:42;22.30;99.90
17859;DHT22;35426;30.698;104.050;2023-04-03T06:00:19;22.70;99.90
17859;DHT22;35426;30.698;104.050;2023-04-03T06:03:01;22.50;99.90
17859;DHT22;35426;30.698;104.050;2023-04-03T06:05:38;22.40;99.90
17859;DHT22;35426;30.698;104.050;2023-04-03T06:08:14;21.90;99.90
17859;DHT22;35426;30.698;104.050;2023-04-03T06:10:49;22.10;99.90
17859;DHT22;35426;30.698;104.050;2023-04-03T06:13:24;22.20;99.90
17859;DHT22;35426;30.698;104.050;2023-04-03T06:15:59;22.70;99.90
17859;DHT22;35426;30.698;104.050;2023-04-03T06:18:35;22.50;99.90
17859;DHT22;35426;30.698;104.050;2023-04-03T06:21:09;21.90;99.90
17859;DHT22;35426;30.698;104.050;2023-04-03T06:23:43;22.40;99.90
17859;DHT22;35426;30.698;104.050;2023-04-03T06:26:20;22.60;99.90
17859;DHT22;35426;30.698;104.050;2023-04-03T06:28:58;22.30;99.90
17859;DHT22;35426;30.698;104.050;2023-04-03T06:31:37;22.50;99.90
17859;DHT22;35426;30.698;104.050;2023-04-03T06:34:11;22.70;99.90
17859;DHT22;35426;30.698;104.050;2023-04-03T06:36:46;22.80;99.90
17859;DHT22;35426;30.698;104.050;2023-04-03T06:39:24;22.90;99.90
17859;DHT22;35426;30.698;104.050;2023-04-03T06:41:58;23.00;99.90
17859;DHT22;35426;30.698;104.050;2023-04-03T06:44:38;22.40;99.90
17859;DHT22;35426;30.698;104.050;2023-04-03T06:47:16;22.60;99.90
17859;DHT22;35426;30.698;104.050;2023-04-03T06:49:49;22.70;99.90
17859;DHT22;35426;30.698;104.050;2023-04-03T06:52:25;22.70;99.90
17859;DHT22;35426;30.698;104.050;2023-04-03T06:54:59;22.80;99.90
17859;DHT22;35426;30.698;104.050;2023-04-03T06:57:32;22.80;99.90
17859;DHT22;35426;30.698;104.050;2023-04-03T07:00:07;22.70;99.90
17859;DHT22;35426;30.698;104.050;2023-04-03T07:02:47;22.70;99.90
17859;DHT22;35426;30.698;104.050;2023-04-03T07:05:21;23.30;99.90
17859;DHT22;35426;30.698;104.050;2023-04-03T07:07:54;23.30;99.90
17859;DHT22;35426;30.698;104.050;2023-04-03T07:10:30;23.20;99.90
17859;DHT22;35426;30.698;104.050;2023-04-03T07:13:07;22.90;99.90
17859;DHT22;35426;30.698;104.050;2023-04-03T07:15:43;23.10;99.90
17859;DHT22;35426;30.698;104.050;2023-04-03T07:18:20;22.70;99.90
17859;DHT22;35426;30.698;104.050;2023-04-03T07:20:54;22.70;99.90
17859;DHT22;35426;30.698;104.050;2023-04-03T07:23:28;22.40;99.90
17859;DHT22;35426;30.698;104.050;2023-04-03T07:26:02;21.80;99.90
17859;DHT22;35426;30.698;104.050;2023-04-03T07:28:36;21.80;99.90
17859;DHT22;35426;30.698;104.050;2023-04-03T07:31:13;22.20;99.90
17859;DHT22;35426;30.698;104.050;2023-04-03T07:33:48;22.50;99.90
17859;DHT22;35426;30.698;104.050;2023-04-03T07:36:22;22.50;99.90
17859;DHT22;35426;30.698;104.050;2023-04-03T07:38:55;22.20;99.90
17859;DHT22;35426;30.698;104.050;2023-04-03T07:41:29;21.90;99.90
17859;DHT22;35426;30.698;104.050;2023-04-03T07:44:05;22.20;99.90
17859;DHT22;35426;30.698;104.050;2023-04-03T07:46:42;22.00;99.90
17859;DHT22;35426;30.698;104.050;2023-04-03T07:49:17;21.40;99.90
17859;DHT22;35426;30.698;104.050;2023-04-03T07:51:50;21.20;99.90
17859;DHT22;35426;30.698;104.050;2023-04-03T07:54:24;21.10;99.90
17859;DHT22;35426;30.698;104.050;2023-04-03T07:56:57;21.30;99.90
17859;DHT22;35426;30.698;104.050;2023-04-03T08:03:19;21.30;99.90
17859;DHT22;35426;30.698;104.050;2023-04-03T08:06:00;21.40;99.90
17859;DHT22;35426;30.698;104.050;2023-04-03T08:08:41;21.20;99.90
17859;DHT22;35426;30.698;104.050;2023-04-03T08:11:14;21.30;99.90
17859;DHT22;35426;30.698;104.050;2023-04-03T08:13:50;21.60;99.90
17859;DHT22;35426;30.698;104.050;2023-04-03T08:16:25;21.50;99.90
17859;DHT22;35426;30.698;104.050;2023-04-03T08:18:59;21.30;99.90
17859;DHT22;35426;30.698;104.050;2023-04-03T08:21:40;21.10;99.90
17859;DHT22;35426;30.698;104.050;2023-04-03T08:24:15;21.00;99.90
17859;DHT22;35426;30.698;104.050;2023-04-03T08:26:50;21.10;99.90
17859;DHT22;35426;30.698;104.050;2023-04-03T08:29:24;21.20;99.90
17859;DHT22;35426;30.698;104.050;2023-04-03T08:31:58;21.00;99.90
17859;DHT22;35426;30.698;104.050;2023-04-03T08:34:32;21.30;99.90
17859;DHT22;35426;30.698;104.050;2023-04-03T08:37:09;21.40;99.90
17859;DHT22;35426;30.698;104.050;2023-04-03T08:39:43;21.20;99.90
17859;DHT22;35426;30.698;104.050;2023-04-03T08:42:20;21.10;99.90
17859;DHT22;35426;30.698;104.050;2023-04-03T08:45:03;21.00;99.90
17859;DHT22;35426;30.698;104.050;2023-04-03T08:47:44;21.00;99.90
17859;DHT22;35426;30.698;104.050;2023-04-03T08:50:28;20.80;99.90
17859;DHT22;35426;30.698;104.050;2023-04-03T08:53:10;20.90;99.90
17859;DHT22;35426;30.698;104.050;2023-04-03T08:55:47;21.10;99.90
17859;DHT22;35426;30.698;104.050;2023-04-03T08:58:23;21.30;99.90
17859;DHT22;35426;30.698;104.050;2023-04-03T09:01:00;21.10;99.90
17859;DHT22;35426;30.698;104.050;2023-04-03T09:03:38;20.80;99.90
17859;DHT22;35426;30.698;104.050;2023-04-03T09:06:16;20.80;99.90
17859;DHT22;35426;30.698;104.050;2023-04-03T09:09:02;20.80;99.90
17859;DHT22;35426;30.698;104.050;2023-04-03T09:11:49;20.70;99.90
17859;DHT22;35426;30.698;104.050;2023-04-03T09:14:32;20.80;99.90
17859;DHT22;35426;30.698;104.050;2023-04-03T09:17:16;20.90;99.90
17859;DHT22;35426;30.698;104.050;2023-04-03T09:19:56;20.90;99.90
17859;DHT22;35426;30.698;104.050;2023-04-03T09:22:33;20.90;99.90
17859;DHT22;35426;30.698;104.050;2023-04-03T09:25:23;20.90;99.90
17859;DHT22;35426;30.698;104.050;2023-04-03T09:27:57;20.80;99.90
17859;DHT22;35426;30.698;104.050;2023-04-03T09:30:34;21.10;99.90
17859;DHT22;35426;30.698;104.050;2023-04-03T09:33:09;21.30;99.90
17859;DHT22;35426;30.698;104.050;2023-04-03T09:35:44;21.40;99.90
17859;DHT22;35426;30.698;104.050;2023-04-03T09:38:21;21.40;99.90
17859;DHT22;35426;30.698;104.050;2023-04-03T09:41:06;21.30;99.90
17859;DHT22;35426;30.698;104.050;2023-04-03T09:43:52;21.30;99.90
17859;DHT22;35426;30.698;104.050;2023-04-03T09:46:33;21.30;99.90
17859;DHT22;35426;30.698;104.050;2023-04-03T09:49:12;21.40;99.90
17859;DHT22;35426;30.698;104.050;2023-04-03T09:51:45;21.40;99.90
17859;DHT22;35426;30.698;104.050;2023-04-03T09:54:32;21.20;99.90
17859;DHT22;35426;30.698;104.050;2023-04-03T09:57:12;21.20;99.90
17859;DHT22;35426;30.698;104.050;2023-04-03T09:59:59;21.10;99.90
17859;DHT22;35426;30.698;104.050;2023-04-03T10:02:39;21.00;99.90
17859;DHT22;35426;30.698;104.050;2023-04-03T10:05:29;21.00;99.90
17859;DHT22;35426;30.698;104.050;2023-04-03T10:08:20;21.00;99.90
17859;DHT22;35426;30.698;104.050;2023-04-03T10:11:12;21.00;99.90
17859;DHT22;35426;30.698;104.050;2023-04-03T10:13:56;20.90;99.90
17859;DHT22;35426;30.698;104.050;2023-04-03T10:16:37;20.80;99.90
17859;DHT22;35426;30.698;104.050;2023-04-03T10:19:36;20.80;99.90
17859;DHT22;35426;30.698;104.050;2023-04-03T10:22:20;20.80;99.90
17859;DHT22;35426;30.698;104.050;2023-04-03T10:25:03;20.60;99.90
17859;DHT22;35426;30.698;104.050;2023-04-03T10:27:48;20.70;99.90
17859;DHT22;35426;30.698;104.050;2023-04-03T10:30:37;20.60;99.90
17859;DHT22;35426;30.698;104.050;2023-04-03T10:33:52;20.70;99.90
17859;DHT22;35426;30.698;104.050;2023-04-03T10:36:40;20.40;99.90
17859;DHT22;35426;30.698;104.050;2023-04-03T10:39:23;20.30;99.90
17859;DHT22;35426;30.698;104.050;2023-04-03T10:42:05;20.30;99.90
17859;DHT22;35426;30.698;104.050;2023-04-03T10:44:59;20.40;99.90
17859;DHT22;35426;30.698;104.050;2023-04-03T10:47:39;20.40;99.90
17859;DHT22;35426;30.698;104.050;2023-04-03T10:50:36;20.20;99.90
17859;DHT22;35426;30.698;104.050;2023-04-03T10:53:20;20.30;99.90
17859;DHT22;35426;30.698;104.050;2023-04-03T10:56:06;20.20;99.90
17859;DHT22;35426;30.698;104.050;2023-04-03T10:58:47;20.20;99.90
17859;DHT22;35426;30.698;104.050;2023-04-03T11:01:22;20.10;99.90
17859;DHT22;35426;30.698;104.050;2023-04-03T11:04:08;19.90;99.90
17859;DHT22;35426;30.698;104.050;2023-04-03T11:06:46;19.80;99.90
17859;DHT22;35426;30.698;104.050;2023-04-03T11:09:26;19.80;99.90
17859;DHT22;35426;30.698;104.050;2023-04-03T11:12:06;19.70;99.90
17859;DHT22;35426;30.698;104.050;2023-04-03T11:14:43;19.80;99.90
17859;DHT22;35426;30.698;104.050;2023-04-03T11:17:25;19.80;99.90
17859;DHT22;35426;30.698;104.050;2023-04-03T11:20:08;19.80;99.90
17859;DHT22;35426;30.698;104.050;2023-04-03T11:22:52;19.70;99.90
17859;DHT22;35426;30.698;104.050;2023-04-03T11:25:31;19.60;99.90
17859;DHT22;35426;30.698;104.050;2023-04-03T11:28:09;19.60;99.90
17859;DHT22;35426;30.698;104.050;2023-04-03T11:30:49;19.50;99.90
17859;DHT22;35426;30.698;104.050;2023-04-03T11:33:37;19.40;99.90
17859;DHT22;35426;30.698;104.050;2023-04-03T11:36:21;19.50;99.90
17859;DHT22;35426;30.698;104.050;2023-04-03T11:39:18;19.50;99.90
17859;DHT22;35426;30.698;104.050;2023-04-03T11:41:53;19.50;99.90
17859;DHT22;35426;30.698;104.050;2023-04-03T11:44:43;19.50;99.90
17859;DHT22;35426;30.698;104.050;2023-04-03T11:47:46;19.50;99.90
17859;DHT22;35426;30.698;104.050;2023-04-03T11:50:43;19.50;99.90
17859;DHT22;35426;30.698;104.050;2023-04-03T11:53:39;19.40;99.90
17859;DHT22;35426;30.698;104.050;2023-04-03T11:56:30;19.40;99.90
17859;DHT22;35426;30.698;104.050;2023-04-03T11:59:24;19.50;99.90
17859;DHT22;35426;30.698;104.050;2023-04-03T12:01:59;19.50;99.90
17859;DHT22;35426;30.698;104.050;2023-04-03T12:04:34;19.40;99.90
17859;DHT22;35426;30.698;104.050;2023-04-03T12:07:18;19.30;99.90
17859;DHT22;35426;30.698;104.050;2023-04-03T12:10:13;19.40;99.90
17859;DHT22;35426;30.698;104.050;2023-04-03T12:13:12;19.30;99.90
17859;DHT22;35426;30.698;104.050;2023-04-03T12:15:54;19.50;99.90
17859;DHT22;35426;30.698;104.050;2023-04-03T12:18:56;19.50;99.90
17859;DHT22;35426;30.698;104.050;2023-04-03T12:22:08;19.40;99.90
17859;DHT22;35426;30.698;104.050;2023-04-03T12:24:51;19.40;99.90
17859;DHT22;35426;30.698;104.050;2023-04-03T12:27:33;19.50;99.90
17859;DHT22;35426;30.698;104.050;2023-04-03T12:30:20;19.50;99.90
17859;DHT22;35426;30.698;104.050;2023-04-03T12:33:18;19.60;99.90
17859;DHT22;35426;30.698;104.050;2023-04-03T12:36:02;19.60;99.90
17859;DHT22;35426;30.698;104.050;2023-04-03T12:39:01;19.50;99.90
17859;DHT22;35426;30.698;104.050;2023-04-03T12:41:51;19.70;99.90
17859;DHT22;35426;30.698;104.050;2023-04-03T12:44:38;19.70;99.90
17859;DHT22;35426;30.698;104.050;2023-04-03T12:47:29;19.80;99.90
17859;DHT22;35426;30.698;104.050;2023-04-03T12:50:18;19.80;99.90
17859;DHT22;35426;30.698;104.050;2023-04-03T12:53:01;19.80;99.90
17859;DHT22;35426;30.698;104.050;2023-04-03T12:55:37;19.80;99.90
17859;DHT22;35426;30.698;104.050;2023-04-03T12:58:21;19.90;99.90
17859;DHT22;35426;30.698;104.050;2023-04-03T13:01:09;19.80;99.90
17859;DHT22;35426;30.698;104.050;2023-04-03T13:03:48;19.80;99.90
17859;DHT22;35426;30.698;104.050;2023-04-03T13:06:32;19.70;99.90
17859;DHT22;35426;30.698;104.050;2023-04-03T13:09:20;19.70;99.90
17859;DHT22;35426;30.698;104.050;2023-04-03T13:12:12;19.60;99.90
17859;DHT22;35426;30.698;104.050;2023-04-03T13:14:53;19.50;99.90
17859;DHT22;35426;30.698;104.050;2023-04-03T13:17:32;19.50;99.90
17859;DHT22;35426;30.698;104.050;2023-04-03T13:20:18;19.40;99.90
17859;DHT22;35426;30.698;104.050;2023-04-03T13:23:04;19.40;99.90
17859;DHT22;35426;30.698;104.050;2023-04-03T13:25:43;19.40;99.90
17859;DHT22;35426;30.698;104.050;2023-04-03T13:28:22;19.30;99.90
17859;DHT22;35426;30.698;104.050;2023-04-03T13:31:17;19.20;99.90
17859;DHT22;35426;30.698;104.050;2023-04-03T13:34:05;19.00;99.90
17859;DHT22;35426;30.698;104.050;2023-04-03T13:36:44;18.80;99.90
17859;DHT22;35426;30.698;104.050;2023-04-03T13:39:24;18.80;99.90
17859;DHT22;35426;30.698;104.050;2023-04-03T13:41:59;18.80;99.90
17859;DHT22;35426;30.698;104.050;2023-04-03T13:44:36;18.70;99.90
17859;DHT22;35426;30.698;104.050;2023-04-03T13:47:19;18.60;99.90
17859;DHT22;35426;30.698;104.050;2023-04-03T13:50:17;18.60;99.90
17859;DHT22;35426;30.698;104.050;2023-04-03T13:52:54;18.60;99.90
17859;DHT22;35426;30.698;104.050;2023-04-03T13:55:30;18.70;99.90
17859;DHT22;35426;30.698;104.050;2023-04-03T13:58:22;18.60;99.90
17859;DHT22;35426;30.698;104.050;2023-04-03T14:01:05;18.70;99.90
17859;DHT22;35426;30.698;104.050;2023-04-03T14:03:44;18.80;99.90
17859;DHT22;35426;30.698;104.050;2023-04-03T14:06:21;18.60;99.90
17859;DHT22;35426;30.698;104.050;2023-04-03T14:08:57;18.60;99.90
17859;DHT22;35426;30.698;104.050;2023-04-03T14:11:35;18.80;99.90
17859;DHT22;35426;30.698;104.050;2023-04-03T14:14:14;19.00;99.90
17859;DHT22;35426;30.698;104.050;2023-04-03T14:16:54;18.80;99.90
17859;DHT22;35426;30.698;104.050;2023-04-03T14:19:31;18.70;99.90
17859;DHT22;35426;30.698;104.050;2023-04-03T14:22:16;18.70;99.90
17859;DHT22;35426;30.698;104.050;2023-04-03T14:24:55;18.70;99.90
17859;DHT22;35426;30.698;104.050;2023-04-03T14:27:38;18.60;99.90
17859;DHT22;35426;30.698;104.050;2023-04-03T14:30:20;18.70;99.90
17859;DHT22;35426;30.698;104.050;2023-04-03T14:33:02;18.70;99.90
17859;DHT22;35426;30.698;104.050;2023-04-03T14:35:38;18.90;99.90
17859;DHT22;35426;30.698;104.050;2023-04-03T14:38:23;18.90;99.90
17859;DHT22;35426;30.698;104.050;2023-04-03T14:41:00;18.80;99.90
17859;DHT22;35426;30.698;104.050;2023-04-03T14:43:44;18.90;99.90
17859;DHT22;35426;30.698;104.050;2023-04-03T14:46:19;18.90;99.90
17859;DHT22;35426;30.698;104.050;2023-04-03T14:49:02;19.00;99.90
17859;DHT22;35426;30.698;104.050;2023-04-03T14:51:40;18.80;99.90
17859;DHT22;35426;30.698;104.050;2023-04-03T14:54:18;19.00;99.90
17859;DHT22;35426;30.698;104.050;2023-04-03T14:56:57;19.10;99.90
17859;DHT22;35426;30.698;104.050;2023-04-03T14:59:37;19.00;99.90
17859;DHT22;35426;30.698;104.050;2023-04-03T15:02:29;19.00;99.90
17859;DHT22;35426;30.698;104.050;2023-04-03T15:05:12;18.90;99.90
17859;DHT22;35426;30.698;104.050;2023-04-03T15:08:02;19.00;99.90
17859;DHT22;35426;30.698;104.050;2023-04-03T15:10:39;19.10;99.90
17859;DHT22;35426;30.698;104.050;2023-04-03T15:13:13;19.20;99.90
17859;DHT22;35426;30.698;104.050;2023-04-03T15:15:48;19.40;99.90
17859;DHT22;35426;30.698;104.050;2023-04-03T15:18:27;19.40;99.90
17859;DHT22;35426;30.698;104.050;2023-04-03T15:21:04;19.50;99.90
17859;DHT22;35426;30.698;104.050;2023-04-03T15:23:41;19.50;99.90
17859;DHT22;35426;30.698;104.050;2023-04-03T15:26:20;19.20;99.90
17859;DHT22;35426;30.698;104.050;2023-04-03T15:28:54;19.10;99.90
17859;DHT22;35426;30.698;104.050;2023-04-03T15:31:30;19.30;99.90
17859;DHT22;35426;30.698;104.050;2023-04-03T15:34:04;19.10;99.90
17859;DHT22;35426;30.698;104.050;2023-04-03T15:36:38;19.10;99.90
17859;DHT22;35426;30.698;104.050;2023-04-03T15:39:11;19.20;99.90
17859;DHT22;35426;30.698;104.050;2023-04-03T15:41:49;19.00;99.90
17859;DHT22;35426;30.698;104.050;2023-04-03T15:44:24;18.80;99.90
17859;DHT22;35426;30.698;104.050;2023-04-03T15:46:59;18.70;99.90
17859;DHT22;35426;30.698;104.050;2023-04-03T15:49:34;18.90;99.90
17859;DHT22;35426;30.698;104.050;2023-04-03T15:52:08;19.00;99.90
17859;DHT22;35426;30.698;104.050;2023-04-03T15:54:41;19.00;99.90
17859;DHT22;35426;30.698;104.050;2023-04-03T15:57:17;18.80;99.90
17859;DHT22;35426;30.698;104.050;2023-04-03T15:59:56;18.60;99.90
17859;DHT22;35426;30.698;104.050;2023-04-03T16:02:34;18.70;99.90
17859;DHT22;35426;30.698;104.050;2023-04-03T16:05:12;18.70;99.90
17859;DHT22;35426;30.698;104.050;2023-04-03T16:07:48;18.70;99.90
17859;DHT22;35426;30.698;104.050;2023-04-03T16:10:21;18.80;99.90
17859;DHT22;35426;30.698;104.050;2023-04-03T16:12:58;18.90;99.90
17859;DHT22;35426;30.698;104.050;2023-04-03T16:15:32;18.90;99.90
17859;DHT22;35426;30.698;104.050;2023-04-03T16:18:05;18.90;99.90
17859;DHT22;35426;30.698;104.050;2023-04-03T16:20:39;19.00;99.90
17859;DHT22;35426;30.698;104.050;2023-04-03T16:23:14;19.00;99.90